sensor_id;sensor_type;location;lat;lon;timestamp;P1;durP1;ratioP1;P2;durP2;ratioP2
44348;SDS011;30068;50.986;4.564;2022-07-23T00:00:39;15.32;;;7.53;;
44348;SDS011;30068;50.986;4.564;2022-07-23T00:03:04;17.38;;;8.52;;
44348;SDS011;30068;50.986;4.564;2022-07-23T00:05:29;16.45;;;9.27;;
44348;SDS011;30068;50.986;4.564;2022-07-23T00:07:55;15.50;;;8.23;;
44348;SDS011;30068;50.986;4.564;2022-07-23T00:10:20;15.05;;;7.68;;
44348;SDS011;30068;50.986;4.564;2022-07-23T00:12:47;19.98;;;8.70;;
44348;SDS011;30068;50.986;4.564;2022-07-23T00:15:12;19.95;;;10.30;;
44348;SDS011;30068;50.986;4.564;2022-07-23T00:17:37;17.05;;;9.05;;
44348;SDS011;30068;50.986;4.564;2022-07-23T00:20:03;16.27;;;9.18;;
44348;SDS011;30068;50.986;4.564;2022-07-23T00:22:28;17.40;;;9.05;;
44348;SDS011;30068;50.986;4.564;2022-07-23T00:24:54;16.35;;;8.32;;
44348;SDS011;30068;50.986;4.564;2022-07-23T00:27:19;17.75;;;8.50;;
44348;SDS011;30068;50.986;4.564;2022-07-23T00:29:44;16.63;;;8.75;;
44348;SDS011;30068;50.986;4.564;2022-07-23T00:32:10;16.40;;;8.23;;
44348;SDS011;30068;50.986;4.564;2022-07-23T00:34:35;17.50;;;8.50;;
44348;SDS011;30068;50.986;4.564;2022-07-23T00:37:00;16.88;;;9.25;;
44348;SDS011;30068;50.986;4.564;2022-07-23T00:39:25;16.42;;;8.98;;
44348;SDS011;30068;50.986;4.564;2022-07-23T00:41:52;19.65;;;10.80;;
44348;SDS011;30068;50.986;4.564;2022-07-23T00:44:21;19.33;;;10.18;;
44348;SDS011;30068;50.986;4.564;2022-07-23T00:46:51;17.92;;;9.63;;
44348;SDS011;30068;50.986;4.564;2022-07-23T00:49:19;16.33;;;8.27;;
44348;SDS011;30068;50.986;4.564;2022-07-23T00:51:45;14.93;;;7.18;;
44348;SDS011;30068;50.986;4.564;2022-07-23T00:54:10;17.23;;;9.15;;
44348;SDS011;30068;50.986;4.564;2022-07-23T00:56:35;17.45;;;9.70;;
44348;SDS011;30068;50.986;4.564;2022-07-23T00:59:00;18.65;;;9.55;;
44348;SDS011;30068;50.986;4.564;2022-07-23T01:01:27;18.27;;;9.77;;
44348;SDS011;30068;50.986;4.564;2022-07-23T01:03:54;17.55;;;9.93;;
44348;SDS011;30068;50.986;4.564;2022-07-23T01:06:19;19.88;;;10.68;;
44348;SDS011;30068;50.986;4.564;2022-07-23T01:08:44;18.27;;;9.43;;
44348;SDS011;30068;50.986;4.564;2022-07-23T01:11:10;14.13;;;8.32;;
44348;SDS011;30068;50.986;4.564;2022-07-23T01:13:40;13.90;;;8.00;;
44348;SDS011;30068;50.986;4.564;2022-07-23T01:16:05;15.38;;;8.80;;
44348;SDS011;30068;50.986;4.564;2022-07-23T01:18:31;20.45;;;9.98;;
44348;SDS011;30068;50.986;4.564;2022-07-23T01:20:56;19.70;;;10.13;;
44348;SDS011;30068;50.986;4.564;2022-07-23T01:23:21;18.57;;;10.10;;
44348;SDS011;30068;50.986;4.564;2022-07-23T01:25:52;18.30;;;10.60;;
44348;SDS011;30068;50.986;4.564;2022-07-23T01:28:18;19.33;;;10.10;;
44348;SDS011;30068;50.986;4.564;2022-07-23T01:30:44;17.23;;;9.50;;
44348;SDS011;30068;50.986;4.564;2022-07-23T01:33:09;20.63;;;10.60;;
44348;SDS011;30068;50.986;4.564;2022-07-23T01:35:34;19.55;;;10.20;;
44348;SDS011;30068;50.986;4.564;2022-07-23T01:37:59;21.65;;;11.95;;
44348;SDS011;30068;50.986;4.564;2022-07-23T01:40:25;18.98;;;10.63;;
44348;SDS011;30068;50.986;4.564;2022-07-23T01:42:50;18.65;;;9.98;;
44348;SDS011;30068;50.986;4.564;2022-07-23T01:45:15;15.93;;;9.13;;
44348;SDS011;30068;50.986;4.564;2022-07-23T01:47:40;17.65;;;9.50;;
44348;SDS011;30068;50.986;4.564;2022-07-23T01:50:06;18.27;;;10.50;;
44348;SDS011;30068;50.986;4.564;2022-07-23T01:52:31;19.13;;;10.10;;
44348;SDS011;30068;50.986;4.564;2022-07-23T01:54:56;18.15;;;9.98;;
44348;SDS011;30068;50.986;4.564;2022-07-23T01:57:22;22.02;;;10.13;;
44348;SDS011;30068;50.986;4.564;2022-07-23T01:59:47;17.42;;;10.15;;
44348;SDS011;30068;50.986;4.564;2022-07-23T02:02:12;18.42;;;9.88;;
44348;SDS011;30068;50.986;4.564;2022-07-23T02:04:37;21.95;;;10.40;;
44348;SDS011;30068;50.986;4.564;2022-07-23T02:07:03;20.10;;;9.98;;
44348;SDS011;30068;50.986;4.564;2022-07-23T02:09:28;19.25;;;9.90;;
44348;SDS011;30068;50.986;4.564;2022-07-23T02:11:53;17.58;;;9.63;;
44348;SDS011;30068;50.986;4.564;2022-07-23T02:14:19;25.83;;;10.48;;
44348;SDS011;30068;50.986;4.564;2022-07-23T02:16:44;20.70;;;9.77;;
44348;SDS011;30068;50.986;4.564;2022-07-23T02:19:09;18.55;;;10.02;;
44348;SDS011;30068;50.986;4.564;2022-07-23T02:21:34;14.95;;;7.93;;
44348;SDS011;30068;50.986;4.564;2022-07-23T02:24:00;16.23;;;8.93;;
44348;SDS011;30068;50.986;4.564;2022-07-23T02:26:26;20.23;;;9.77;;
44348;SDS011;30068;50.986;4.564;2022-07-23T02:28:51;19.23;;;10.07;;
44348;SDS011;30068;50.986;4.564;2022-07-23T02:31:17;18.15;;;9.25;;
44348;SDS011;30068;50.986;4.564;2022-07-23T02:33:43;18.67;;;10.27;;
44348;SDS011;30068;50.986;4.564;2022-07-23T02:36:08;22.48;;;10.60;;
44348;SDS011;30068;50.986;4.564;2022-07-23T02:38:33;20.45;;;9.27;;
44348;SDS011;30068;50.986;4.564;2022-07-23T02:40:59;13.68;;;7.65;;
44348;SDS011;30068;50.986;4.564;2022-07-23T02:43:24;14.65;;;8.55;;
44348;SDS011;30068;50.986;4.564;2022-07-23T02:45:49;18.88;;;9.57;;
44348;SDS011;30068;50.986;4.564;2022-07-23T02:48:14;18.30;;;10.18;;
44348;SDS011;30068;50.986;4.564;2022-07-23T02:50:39;15.95;;;9.38;;
44348;SDS011;30068;50.986;4.564;2022-07-23T02:53:05;18.02;;;9.50;;
44348;SDS011;30068;50.986;4.564;2022-07-23T02:55:30;21.35;;;9.85;;
44348;SDS011;30068;50.986;4.564;2022-07-23T02:57:56;19.55;;;9.65;;
44348;SDS011;30068;50.986;4.564;2022-07-23T03:00:21;20.80;;;10.82;;
44348;SDS011;30068;50.986;4.564;2022-07-23T03:02:46;19.80;;;9.85;;
44348;SDS011;30068;50.986;4.564;2022-07-23T03:05:12;20.08;;;9.60;;
44348;SDS011;30068;50.986;4.564;2022-07-23T03:07:37;17.98;;;9.88;;
44348;SDS011;30068;50.986;4.564;2022-07-23T03:10:02;20.95;;;9.93;;
44348;SDS011;30068;50.986;4.564;2022-07-23T03:12:28;17.52;;;9.00;;
44348;SDS011;30068;50.986;4.564;2022-07-23T03:14:53;15.95;;;8.85;;
44348;SDS011;30068;50.986;4.564;2022-07-23T03:17:18;17.58;;;9.35;;
44348;SDS011;30068;50.986;4.564;2022-07-23T03:19:44;21.35;;;8.75;;
44348;SDS011;30068;50.986;4.564;2022-07-23T03:22:09;15.25;;;8.68;;
44348;SDS011;30068;50.986;4.564;2022-07-23T03:24:34;17.70;;;9.90;;
44348;SDS011;30068;50.986;4.564;2022-07-23T03:27:18;16.75;;;9.35;;
44348;SDS011;30068;50.986;4.564;2022-07-23T03:29:44;21.65;;;10.55;;
44348;SDS011;30068;50.986;4.564;2022-07-23T03:32:09;18.55;;;10.23;;
44348;SDS011;30068;50.986;4.564;2022-07-23T03:34:34;20.35;;;10.40;;
44348;SDS011;30068;50.986;4.564;2022-07-23T03:37:00;18.95;;;10.50;;
44348;SDS011;30068;50.986;4.564;2022-07-23T03:39:26;20.08;;;9.80;;
44348;SDS011;30068;50.986;4.564;2022-07-23T03:41:51;19.27;;;10.05;;
44348;SDS011;30068;50.986;4.564;2022-07-23T03:44:16;17.83;;;10.05;;
44348;SDS011;30068;50.986;4.564;2022-07-23T03:46:42;18.98;;;9.50;;
44348;SDS011;30068;50.986;4.564;2022-07-23T03:49:07;18.38;;;9.90;;
44348;SDS011;30068;50.986;4.564;2022-07-23T03:51:32;19.67;;;8.65;;
44348;SDS011;30068;50.986;4.564;2022-07-23T03:53:57;15.35;;;7.93;;
44348;SDS011;30068;50.986;4.564;2022-07-23T03:56:23;15.73;;;8.93;;
44348;SDS011;30068;50.986;4.564;2022-07-23T03:58:48;20.60;;;8.60;;
44348;SDS011;30068;50.986;4.564;2022-07-23T04:01:13;16.65;;;8.32;;
44348;SDS011;30068;50.986;4.564;2022-07-23T04:03:38;15.60;;;8.40;;
44348;SDS011;30068;50.986;4.564;2022-07-23T04:06:04;15.60;;;8.63;;
44348;SDS011;30068;50.986;4.564;2022-07-23T04:08:29;17.13;;;8.82;;
44348;SDS011;30068;50.986;4.564;2022-07-23T04:10:55;17.33;;;9.07;;
44348;SDS011;30068;50.986;4.564;2022-07-23T04:13:20;17.85;;;9.15;;
44348;SDS011;30068;50.986;4.564;2022-07-23T04:15:45;19.35;;;9.10;;
44348;SDS011;30068;50.986;4.564;2022-07-23T04:18:12;14.02;;;8.40;;
44348;SDS011;30068;50.986;4.564;2022-07-23T04:20:37;16.02;;;8.40;;
44348;SDS011;30068;50.986;4.564;2022-07-23T04:23:02;21.25;;;9.40;;
44348;SDS011;30068;50.986;4.564;2022-07-23T04:25:28;17.60;;;9.25;;
44348;SDS011;30068;50.986;4.564;2022-07-23T04:27:54;16.70;;;9.07;;
44348;SDS011;30068;50.986;4.564;2022-07-23T04:30:19;20.90;;;10.85;;
44348;SDS011;30068;50.986;4.564;2022-07-23T04:32:44;20.10;;;9.65;;
44348;SDS011;30068;50.986;4.564;2022-07-23T04:35:09;17.00;;;8.90;;
44348;SDS011;30068;50.986;4.564;2022-07-23T04:37:35;17.00;;;9.43;;
44348;SDS011;30068;50.986;4.564;2022-07-23T04:40:00;17.27;;;9.10;;
44348;SDS011;30068;50.986;4.564;2022-07-23T04:42:25;16.98;;;9.38;;
44348;SDS011;30068;50.986;4.564;2022-07-23T04:44:50;17.02;;;9.35;;
44348;SDS011;30068;50.986;4.564;2022-07-23T04:47:16;18.15;;;8.98;;
44348;SDS011;30068;50.986;4.564;2022-07-23T04:49:41;15.73;;;7.72;;
44348;SDS011;30068;50.986;4.564;2022-07-23T04:52:06;17.90;;;9.38;;
44348;SDS011;30068;50.986;4.564;2022-07-23T04:54:31;14.73;;;8.77;;
44348;SDS011;30068;50.986;4.564;2022-07-23T04:56:57;18.17;;;8.68;;
44348;SDS011;30068;50.986;4.564;2022-07-23T04:59:22;20.92;;;9.77;;
44348;SDS011;30068;50.986;4.564;2022-07-23T05:01:47;17.15;;;9.88;;
44348;SDS011;30068;50.986;4.564;2022-07-23T05:04:12;19.58;;;10.40;;
44348;SDS011;30068;50.986;4.564;2022-07-23T05:06:38;21.73;;;10.02;;
44348;SDS011;30068;50.986;4.564;2022-07-23T05:09:03;21.17;;;10.90;;
44348;SDS011;30068;50.986;4.564;2022-07-23T05:11:28;19.17;;;9.80;;
44348;SDS011;30068;50.986;4.564;2022-07-23T05:13:53;20.45;;;9.75;;
44348;SDS011;30068;50.986;4.564;2022-07-23T05:16:19;18.30;;;9.90;;
44348;SDS011;30068;50.986;4.564;2022-07-23T05:18:44;21.10;;;9.82;;
44348;SDS011;30068;50.986;4.564;2022-07-23T05:21:10;18.10;;;10.02;;
44348;SDS011;30068;50.986;4.564;2022-07-23T05:23:35;18.70;;;9.20;;
44348;SDS011;30068;50.986;4.564;2022-07-23T05:26:00;20.67;;;10.52;;
44348;SDS011;30068;50.986;4.564;2022-07-23T05:28:25;18.48;;;10.35;;
44348;SDS011;30068;50.986;4.564;2022-07-23T05:30:51;20.88;;;10.25;;
44348;SDS011;30068;50.986;4.564;2022-07-23T05:33:18;21.48;;;10.00;;
44348;SDS011;30068;50.986;4.564;2022-07-23T05:35:43;23.67;;;11.73;;
44348;SDS011;30068;50.986;4.564;2022-07-23T05:38:08;18.30;;;10.50;;
44348;SDS011;30068;50.986;4.564;2022-07-23T05:40:33;19.77;;;10.85;;
44348;SDS011;30068;50.986;4.564;2022-07-23T05:42:59;21.85;;;11.60;;
44348;SDS011;30068;50.986;4.564;2022-07-23T05:45:24;20.52;;;10.57;;
44348;SDS011;30068;50.986;4.564;2022-07-23T05:47:49;18.98;;;10.55;;
44348;SDS011;30068;50.986;4.564;2022-07-23T05:50:15;17.83;;;10.20;;
44348;SDS011;30068;50.986;4.564;2022-07-23T05:52:40;20.27;;;9.82;;
44348;SDS011;30068;50.986;4.564;2022-07-23T05:55:06;19.88;;;11.13;;
44348;SDS011;30068;50.986;4.564;2022-07-23T05:57:31;17.95;;;9.98;;
44348;SDS011;30068;50.986;4.564;2022-07-23T05:59:57;17.08;;;9.60;;
44348;SDS011;30068;50.986;4.564;2022-07-23T06:02:22;16.77;;;9.45;;
44348;SDS011;30068;50.986;4.564;2022-07-23T06:04:47;17.50;;;9.60;;
44348;SDS011;30068;50.986;4.564;2022-07-23T06:07:13;18.75;;;10.02;;
44348;SDS011;30068;50.986;4.564;2022-07-23T06:09:38;19.83;;;9.82;;
44348;SDS011;30068;50.986;4.564;2022-07-23T06:12:03;18.92;;;9.68;;
44348;SDS011;30068;50.986;4.564;2022-07-23T06:14:28;21.35;;;10.02;;
44348;SDS011;30068;50.986;4.564;2022-07-23T06:16:54;18.33;;;10.25;;
44348;SDS011;30068;50.986;4.564;2022-07-23T06:19:19;18.50;;;9.65;;
44348;SDS011;30068;50.986;4.564;2022-07-23T06:21:44;20.50;;;9.60;;
44348;SDS011;30068;50.986;4.564;2022-07-23T06:24:09;17.20;;;9.75;;
44348;SDS011;30068;50.986;4.564;2022-07-23T06:26:34;21.67;;;10.15;;
44348;SDS011;30068;50.986;4.564;2022-07-23T06:29:01;18.92;;;10.25;;
44348;SDS011;30068;50.986;4.564;2022-07-23T06:31:26;17.73;;;9.82;;
44348;SDS011;30068;50.986;4.564;2022-07-23T06:33:51;16.50;;;9.55;;
44348;SDS011;30068;50.986;4.564;2022-07-23T06:36:18;16.88;;;9.40;;
44348;SDS011;30068;50.986;4.564;2022-07-23T06:38:43;18.00;;;10.02;;
44348;SDS011;30068;50.986;4.564;2022-07-23T06:41:08;19.77;;;10.73;;
44348;SDS011;30068;50.986;4.564;2022-07-23T06:43:35;19.13;;;9.88;;
44348;SDS011;30068;50.986;4.564;2022-07-23T06:46:00;17.48;;;9.73;;
44348;SDS011;30068;50.986;4.564;2022-07-23T06:48:26;18.92;;;9.32;;
44348;SDS011;30068;50.986;4.564;2022-07-23T06:50:51;18.08;;;8.93;;
44348;SDS011;30068;50.986;4.564;2022-07-23T06:53:18;16.45;;;9.30;;
44348;SDS011;30068;50.986;4.564;2022-07-23T06:55:43;19.63;;;8.73;;
44348;SDS011;30068;50.986;4.564;2022-07-23T06:58:09;14.32;;;8.65;;
44348;SDS011;30068;50.986;4.564;2022-07-23T07:00:35;13.60;;;8.32;;
44348;SDS011;30068;50.986;4.564;2022-07-23T07:03:03;13.00;;;8.05;;
44348;SDS011;30068;50.986;4.564;2022-07-23T07:05:29;14.98;;;8.57;;
44348;SDS011;30068;50.986;4.564;2022-07-23T07:07:54;16.52;;;8.73;;
44348;SDS011;30068;50.986;4.564;2022-07-23T07:10:20;16.58;;;8.48;;
44348;SDS011;30068;50.986;4.564;2022-07-23T07:12:45;17.15;;;9.15;;
44348;SDS011;30068;50.986;4.564;2022-07-23T07:15:12;15.82;;;8.02;;
44348;SDS011;30068;50.986;4.564;2022-07-23T07:17:38;15.15;;;8.32;;
44348;SDS011;30068;50.986;4.564;2022-07-23T07:20:04;20.75;;;9.63;;
44348;SDS011;30068;50.986;4.564;2022-07-23T07:22:30;19.17;;;8.57;;
44348;SDS011;30068;50.986;4.564;2022-07-23T07:24:55;15.95;;;8.57;;
44348;SDS011;30068;50.986;4.564;2022-07-23T07:27:20;13.60;;;7.57;;
44348;SDS011;30068;50.986;4.564;2022-07-23T07:29:45;13.77;;;7.75;;
44348;SDS011;30068;50.986;4.564;2022-07-23T07:32:11;13.25;;;7.32;;
44348;SDS011;30068;50.986;4.564;2022-07-23T07:34:36;13.38;;;7.03;;
44348;SDS011;30068;50.986;4.564;2022-07-23T07:37:01;14.15;;;8.27;;
44348;SDS011;30068;50.986;4.564;2022-07-23T07:39:26;16.40;;;7.40;;
44348;SDS011;30068;50.986;4.564;2022-07-23T07:41:51;14.15;;;7.35;;
44348;SDS011;30068;50.986;4.564;2022-07-23T07:44:17;13.30;;;6.93;;
44348;SDS011;30068;50.986;4.564;2022-07-23T07:46:42;12.70;;;6.90;;
44348;SDS011;30068;50.986;4.564;2022-07-23T07:49:07;12.75;;;6.72;;
44348;SDS011;30068;50.986;4.564;2022-07-23T07:51:32;12.00;;;6.85;;
44348;SDS011;30068;50.986;4.564;2022-07-23T07:53:58;13.27;;;6.82;;
44348;SDS011;30068;50.986;4.564;2022-07-23T07:56:24;11.00;;;6.38;;
44348;SDS011;30068;50.986;4.564;2022-07-23T07:58:50;11.90;;;5.20;;
44348;SDS011;30068;50.986;4.564;2022-07-23T08:01:15;10.80;;;5.50;;
44348;SDS011;30068;50.986;4.564;2022-07-23T08:03:40;10.18;;;4.70;;
44348;SDS011;30068;50.986;4.564;2022-07-23T08:06:05;9.55;;;5.43;;
44348;SDS011;30068;50.986;4.564;2022-07-23T08:08:31;10.75;;;6.30;;
44348;SDS011;30068;50.986;4.564;2022-07-23T08:10:56;11.88;;;6.00;;
44348;SDS011;30068;50.986;4.564;2022-07-23T08:13:21;12.32;;;5.78;;
44348;SDS011;30068;50.986;4.564;2022-07-23T08:15:46;12.50;;;5.80;;
44348;SDS011;30068;50.986;4.564;2022-07-23T08:18:11;11.43;;;5.93;;
44348;SDS011;30068;50.986;4.564;2022-07-23T08:20:37;10.18;;;5.60;;
44348;SDS011;30068;50.986;4.564;2022-07-23T08:23:03;9.32;;;4.80;;
44348;SDS011;30068;50.986;4.564;2022-07-23T08:25:30;12.60;;;4.95;;
44348;SDS011;30068;50.986;4.564;2022-07-23T08:27:55;10.75;;;5.22;;
44348;SDS011;30068;50.986;4.564;2022-07-23T08:30:22;11.52;;;5.03;;
44348;SDS011;30068;50.986;4.564;2022-07-23T08:32:48;10.43;;;4.80;;
44348;SDS011;30068;50.986;4.564;2022-07-23T08:35:13;15.13;;;4.90;;
44348;SDS011;30068;50.986;4.564;2022-07-23T08:37:39;8.82;;;4.63;;
44348;SDS011;30068;50.986;4.564;2022-07-23T08:40:04;9.23;;;4.63;;
44348;SDS011;30068;50.986;4.564;2022-07-23T08:42:30;14.88;;;5.28;;
44348;SDS011;30068;50.986;4.564;2022-07-23T08:44:55;11.93;;;4.53;;
